Jette Viking Hv77 — 5QEP — position and weather

sailwx.info

Track history (hours):
 
Tides and Currents Weather Stations Pressure Air Temp Water Temp Dewpoint Dewpoint Depression Visibility Wind Speed Wind Dir Waves Ship Positions

Jette Viking Hv77

Last reported at 2017-Aug-24 06:30 UTC. Time now 2017-Aug-24 06:48 UTC.
Position N 57°30' E 010°30'.

Length 16 m.

Type: Fishing. MMSI: 220046000.

Date/timePositionNaut miles runAvg speedWind from/ knotsBaromVisibWave heightAir tempDewpointWater temp
2017-Aug-24 06:30N 57°30' E 010°30'0 0.0
2017-Aug-24 05:59N 57°30' E 010°30'0 0.0
2017-Aug-24 05:30N 57°30' E 010°30'0 0.0
2017-Aug-24 05:00N 57°30' E 010°30'0 0.3
2017-Aug-24 04:30N 57°30' E 010°30'3 6.4
2017-Aug-24 04:00N 57°29' E 010°36'3 6.5
2017-Aug-24 03:30N 57°28' E 010°42'3 6.7
2017-Aug-24 03:00N 57°26' E 010°47'0 0.7
2017-Aug-24 02:30N 57°27' E 010°47'2 2.5
2017-Aug-24 01:42N 57°29' E 010°48'0 2.5
2017-Aug-24 01:30N 57°29' E 010°48'4 2.6
2017-Aug-24 00:04N 57°33' E 010°49'0 2.6
2017-Aug-23 23:58N 57°33' E 010°50'1 2.6
2017-Aug-23 23:30N 57°34' E 010°50'1 2.6
2017-Aug-23 22:55N 57°36' E 010°50'0 0.8
2017-Aug-23 22:30N 57°36' E 010°50'1 2.4
2017-Aug-23 22:00N 57°35' E 010°50'1 2.6
2017-Aug-23 21:28N 57°33' E 010°49'1 2.6
2017-Aug-23 21:00N 57°32' E 010°49'1 2.6
2017-Aug-23 20:30N 57°31' E 010°48'1 2.5
2017-Aug-23 20:00N 57°30' E 010°48'1 2.5
2017-Aug-23 19:30N 57°29' E 010°48'1 2.5
2017-Aug-23 19:00N 57°27' E 010°48'1 2.5
2017-Aug-23 18:28N 57°26' E 010°47'1 2.6
2017-Aug-23 18:00N 57°26' E 010°45'8 6.6
2017-Aug-23 16:45N 57°30' E 010°31'7 0.5
2017-Aug-23 03:18N 57°27' E 010°43'2 5.9
2017-Aug-23 02:55N 57°26' E 010°47'9 2.4
2017-Aug-22 23:17N 57°35' E 010°50'1 2.5
2017-Aug-22 22:52N 57°36' E 010°50'0 1.1
2017-Aug-22 22:30N 57°36' E 010°50'1 2.5
2017-Aug-22 22:00N 57°35' E 010°50'1 2.6
2017-Aug-22 21:29N 57°34' E 010°50'1 2.5
2017-Aug-22 21:00N 57°32' E 010°49'1 2.6
2017-Aug-22 20:28N 57°31' E 010°48'1 2.6
2017-Aug-22 19:59N 57°30' E 010°48'1 2.6
2017-Aug-22 19:30N 57°29' E 010°48'1 2.6
2017-Aug-22 19:00N 57°27' E 010°47'1 2.6
2017-Aug-22 18:30N 57°26' E 010°47'2 2.7
2017-Aug-22 17:55N 57°26' E 010°44'3 6.6
2017-Aug-22 17:30N 57°28' E 010°40'3 6.6
2017-Aug-22 16:59N 57°29' E 010°34'5 0.4
2017-Aug-22 03:08N 57°28' E 010°44'1 7.3
2017-Aug-22 02:58N 57°28' E 010°46'5 2.2
2017-Aug-22 00:47N 57°32' E 010°49'3 2.6
2017-Aug-21 23:43N 57°35' E 010°51'1 2.6
2017-Aug-21 23:29N 57°35' E 010°51'1 2.5
2017-Aug-21 22:54N 57°37' E 010°52'1 2.2
2017-Aug-21 22:30N 57°37' E 010°50'1 1.9
2017-Aug-21 21:58N 57°36' E 010°51'1 2.6
2017-Aug-21 21:30N 57°35' E 010°51'1 2.5
2017-Aug-21 20:57N 57°34' E 010°50'1 2.6
2017-Aug-21 20:27N 57°32' E 010°49'1 2.6
2017-Aug-21 20:00N 57°31' E 010°49'1 2.6
2017-Aug-21 19:29N 57°30' E 010°48'1 2.5
2017-Aug-21 19:00N 57°29' E 010°48'1 2.5
2017-Aug-21 18:30N 57°28' E 010°47'2 3.9
2017-Aug-21 17:58N 57°28' E 010°43'7 0.5
2017-Aug-21 04:15N 57°30' E 010°30'5 5.4
2017-Aug-21 03:17N 57°27' E 010°39'2 7.1
2017-Aug-21 03:00N 57°26' E 010°42'9 2.3
2017-Aug-20 23:11N 57°35' E 010°42'1 2.6
2017-Aug-20 22:46N 57°36' E 010°42'0 1.2
2017-Aug-20 22:30N 57°35' E 010°41'1 2.5
2017-Aug-20 21:58N 57°34' E 010°41'1 2.6
2017-Aug-20 21:30N 57°33' E 010°42'7 0.4
2017-Aug-20 02:45N 57°30' E 010°30'0 0.0
2017-Aug-20 02:30N 57°30' E 010°30'0 0.0
2017-Aug-20 02:00N 57°30' E 010°30'0 0.0
2017-Aug-20 01:30N 57°30' E 010°30'0 0.0
2017-Aug-20 00:58N 57°30' E 010°30'0 0.0
2017-Aug-18 02:54N 57°30' E 010°30'0 0.0
2017-Aug-18 02:24N 57°30' E 010°30'0 0.0
2017-Aug-17 07:25N 57°30' E 010°30'0 0.0
2017-Aug-17 06:58N 57°30' E 010°30'0 0.0
2017-Aug-17 06:28N 57°30' E 010°30'0 0.0
2017-Aug-17 05:59N 57°30' E 010°30'0 0.0
2017-Aug-17 05:25N 57°30' E 010°30'0 0.0
2017-Aug-17 04:53N 57°30' E 010°30'2 3.3
2017-Aug-17 04:19N 57°29' E 010°34'2 7.6
2017-Aug-17 04:00N 57°29' E 010°38'3 7.1
2017-Aug-17 03:30N 57°28' E 010°45'3 5.4
2017-Aug-17 03:00N 57°28' E 010°50'1 1.8
2017-Aug-17 02:30N 57°28' E 010°51'1 2.5
2017-Aug-17 02:00N 57°29' E 010°53'1 2.5
2017-Aug-17 01:29N 57°29' E 010°55'1 2.6
2017-Aug-17 01:00N 57°30' E 010°57'1 2.5
2017-Aug-17 00:30N 57°31' E 010°59'1 2.5
2017-Aug-17 00:00N 57°32' E 011°01'1 2.5
2017-Aug-16 23:30N 57°32' E 011°03'1 2.7
2017-Aug-16 23:00N 57°33' E 011°04'1 1.4
2017-Aug-16 22:30N 57°34' E 011°05'1 2.5
2017-Aug-16 22:00N 57°33' E 011°04'1 2.4
2017-Aug-16 21:30N 57°32' E 011°02'1 2.5
2017-Aug-16 21:00N 57°31' E 011°00'1 2.5
2017-Aug-16 20:30N 57°31' E 010°58'1 2.6
2017-Aug-16 19:57N 57°30' E 010°56'1 2.5
2017-Aug-16 19:29N 57°29' E 010°54'1 2.5
2017-Aug-16 19:00N 57°28' E 010°53'1 2.7
2017-Aug-16 18:30N 57°28' E 010°50'4 7.1
2017-Aug-16 18:00N 57°29' E 010°43'4 7.6
2017-Aug-16 17:30N 57°29' E 010°36'3 5.7
2017-Aug-16 16:55N 57°30' E 010°30'0 0.0
2017-Aug-16 16:29N 57°30' E 010°30'0 0.0
2017-Aug-16 16:00N 57°30' E 010°30'0 0.0
2017-Aug-16 15:25N 57°30' E 010°30'0 0.0
2017-Aug-16 12:31N 57°30' E 010°30'0 0.0
2017-Aug-16 12:29N 57°30' E 010°30'0 0.0
2017-Aug-15 15:23N 57°30' E 010°30'0 0.0
2017-Aug-15 14:55N 57°30' E 010°30'7 0.6
2017-Aug-15 03:05N 57°28' E 010°44'1 7.3
2017-Aug-15 02:59N 57°28' E 010°45'3 3.6
2017-Aug-15 02:15N 57°28' E 010°50'1 2.6
2017-Aug-15 02:00N 57°28' E 010°51'1 2.5
2017-Aug-15 01:28N 57°29' E 010°53'1 2.5
2017-Aug-15 00:59N 57°29' E 010°55'1 2.5
2017-Aug-15 00:30N 57°30' E 010°57'1 2.5
2017-Aug-15 00:00N 57°31' E 010°59'1 2.5
2017-Aug-14 23:30N 57°32' E 011°01'1 2.7
2017-Aug-14 23:00N 57°33' E 011°03'1 1.6
2017-Aug-14 22:30N 57°33' E 011°03'1 2.2
2017-Aug-14 22:00N 57°32' E 011°02'1 2.5
2017-Aug-14 21:30N 57°31' E 011°00'1 2.5
2017-Aug-14 21:00N 57°31' E 010°59'1 2.5
2017-Aug-14 20:29N 57°30' E 010°57'1 2.6
2017-Aug-14 20:00N 57°29' E 010°55'1 2.5
2017-Aug-14 19:30N 57°28' E 010°53'1 2.6
2017-Aug-14 19:00N 57°28' E 010°51'2 4.1
2017-Aug-14 18:29N 57°28' E 010°47'  
Track history (hours):
 
Tides and Currents Weather Stations Pressure Air Temp Water Temp Dewpoint Dewpoint Depression Visibility Wind Speed Wind Dir Waves Ship Positions

Jette Viking Hv77

Last reported at 2017-Aug-24 06:30 UTC. Time now 2017-Aug-24 06:48 UTC.
Position N 57°30' E 010°30'.

Length 16 m.

Type: Fishing. MMSI: 220046000.

Date/timePositionNaut miles runAvg speedWind from/ knotsBaromVisibWave heightAir tempDewpointWater temp
2017-Aug-24 06:30N 57°30' E 010°30'0 0.0
2017-Aug-24 05:59N 57°30' E 010°30'0 0.0
2017-Aug-24 05:30N 57°30' E 010°30'0 0.0
2017-Aug-24 05:00N 57°30' E 010°30'0 0.3
2017-Aug-24 04:30N 57°30' E 010°30'3 6.4
2017-Aug-24 04:00N 57°29' E 010°36'3 6.5
2017-Aug-24 03:30N 57°28' E 010°42'3 6.7
2017-Aug-24 03:00N 57°26' E 010°47'0 0.7
2017-Aug-24 02:30N 57°27' E 010°47'2 2.5
2017-Aug-24 01:42N 57°29' E 010°48'0 2.5
2017-Aug-24 01:30N 57°29' E 010°48'4 2.6
2017-Aug-24 00:04N 57°33' E 010°49'0 2.6
2017-Aug-23 23:58N 57°33' E 010°50'1 2.6
2017-Aug-23 23:30N 57°34' E 010°50'1 2.6
2017-Aug-23 22:55N 57°36' E 010°50'0 0.8
2017-Aug-23 22:30N 57°36' E 010°50'1 2.4
2017-Aug-23 22:00N 57°35' E 010°50'1 2.6
2017-Aug-23 21:28N 57°33' E 010°49'1 2.6
2017-Aug-23 21:00N 57°32' E 010°49'1 2.6
2017-Aug-23 20:30N 57°31' E 010°48'1 2.5
2017-Aug-23 20:00N 57°30' E 010°48'1 2.5
2017-Aug-23 19:30N 57°29' E 010°48'1 2.5
2017-Aug-23 19:00N 57°27' E 010°48'1 2.5
2017-Aug-23 18:28N 57°26' E 010°47'1 2.6
2017-Aug-23 18:00N 57°26' E 010°45'8 6.6
2017-Aug-23 16:45N 57°30' E 010°31'7 0.5
2017-Aug-23 03:18N 57°27' E 010°43'2 5.9
2017-Aug-23 02:55N 57°26' E 010°47'9 2.4
2017-Aug-22 23:17N 57°35' E 010°50'1 2.5
2017-Aug-22 22:52N 57°36' E 010°50'0 1.1
2017-Aug-22 22:30N 57°36' E 010°50'1 2.5
2017-Aug-22 22:00N 57°35' E 010°50'1 2.6
2017-Aug-22 21:29N 57°34' E 010°50'1 2.5
2017-Aug-22 21:00N 57°32' E 010°49'1 2.6
2017-Aug-22 20:28N 57°31' E 010°48'1 2.6
2017-Aug-22 19:59N 57°30' E 010°48'1 2.6
2017-Aug-22 19:30N 57°29' E 010°48'1 2.6
2017-Aug-22 19:00N 57°27' E 010°47'1 2.6
2017-Aug-22 18:30N 57°26' E 010°47'2 2.7
2017-Aug-22 17:55N 57°26' E 010°44'3 6.6
2017-Aug-22 17:30N 57°28' E 010°40'3 6.6
2017-Aug-22 16:59N 57°29' E 010°34'5 0.4
2017-Aug-22 03:08N 57°28' E 010°44'1 7.3
2017-Aug-22 02:58N 57°28' E 010°46'5 2.2
2017-Aug-22 00:47N 57°32' E 010°49'3 2.6
2017-Aug-21 23:43N 57°35' E 010°51'1 2.6
2017-Aug-21 23:29N 57°35' E 010°51'1 2.5
2017-Aug-21 22:54N 57°37' E 010°52'1 2.2
2017-Aug-21 22:30N 57°37' E 010°50'1 1.9
2017-Aug-21 21:58N 57°36' E 010°51'1 2.6
2017-Aug-21 21:30N 57°35' E 010°51'1 2.5
2017-Aug-21 20:57N 57°34' E 010°50'1 2.6
2017-Aug-21 20:27N 57°32' E 010°49'1 2.6
2017-Aug-21 20:00N 57°31' E 010°49'1 2.6
2017-Aug-21 19:29N 57°30' E 010°48'1 2.5
2017-Aug-21 19:00N 57°29' E 010°48'1 2.5
2017-Aug-21 18:30N 57°28' E 010°47'2 3.9
2017-Aug-21 17:58N 57°28' E 010°43'7 0.5
2017-Aug-21 04:15N 57°30' E 010°30'5 5.4
2017-Aug-21 03:17N 57°27' E 010°39'2 7.1
2017-Aug-21 03:00N 57°26' E 010°42'9 2.3
2017-Aug-20 23:11N 57°35' E 010°42'1 2.6
2017-Aug-20 22:46N 57°36' E 010°42'0 1.2
2017-Aug-20 22:30N 57°35' E 010°41'1 2.5
2017-Aug-20 21:58N 57°34' E 010°41'1 2.6
2017-Aug-20 21:30N 57°33' E 010°42'7 0.4
2017-Aug-20 02:45N 57°30' E 010°30'0 0.0
2017-Aug-20 02:30N 57°30' E 010°30'0 0.0
2017-Aug-20 02:00N 57°30' E 010°30'0 0.0
2017-Aug-20 01:30N 57°30' E 010°30'0 0.0
2017-Aug-20 00:58N 57°30' E 010°30'0 0.0
2017-Aug-18 02:54N 57°30' E 010°30'0 0.0
2017-Aug-18 02:24N 57°30' E 010°30'0 0.0
2017-Aug-17 07:25N 57°30' E 010°30'0 0.0
2017-Aug-17 06:58N 57°30' E 010°30'0 0.0
2017-Aug-17 06:28N 57°30' E 010°30'0 0.0
2017-Aug-17 05:59N 57°30' E 010°30'0 0.0
2017-Aug-17 05:25N 57°30' E 010°30'0 0.0
2017-Aug-17 04:53N 57°30' E 010°30'2 3.3
2017-Aug-17 04:19N 57°29' E 010°34'2 7.6
2017-Aug-17 04:00N 57°29' E 010°38'3 7.1
2017-Aug-17 03:30N 57°28' E 010°45'3 5.4
2017-Aug-17 03:00N 57°28' E 010°50'1 1.8
2017-Aug-17 02:30N 57°28' E 010°51'1 2.5
2017-Aug-17 02:00N 57°29' E 010°53'1 2.5
2017-Aug-17 01:29N 57°29' E 010°55'1 2.6
2017-Aug-17 01:00N 57°30' E 010°57'1 2.5
2017-Aug-17 00:30N 57°31' E 010°59'1 2.5
2017-Aug-17 00:00N 57°32' E 011°01'1 2.5
2017-Aug-16 23:30N 57°32' E 011°03'1 2.7
2017-Aug-16 23:00N 57°33' E 011°04'1 1.4
2017-Aug-16 22:30N 57°34' E 011°05'1 2.5
2017-Aug-16 22:00N 57°33' E 011°04'1 2.4
2017-Aug-16 21:30N 57°32' E 011°02'1 2.5
2017-Aug-16 21:00N 57°31' E 011°00'1 2.5
2017-Aug-16 20:30N 57°31' E 010°58'1 2.6
2017-Aug-16 19:57N 57°30' E 010°56'1 2.5
2017-Aug-16 19:29N 57°29' E 010°54'1 2.5
2017-Aug-16 19:00N 57°28' E 010°53'1 2.7
2017-Aug-16 18:30N 57°28' E 010°50'4 7.1
2017-Aug-16 18:00N 57°29' E 010°43'4 7.6
2017-Aug-16 17:30N 57°29' E 010°36'3 5.7
2017-Aug-16 16:55N 57°30' E 010°30'0 0.0
2017-Aug-16 16:29N 57°30' E 010°30'0 0.0
2017-Aug-16 16:00N 57°30' E 010°30'0 0.0
2017-Aug-16 15:25N 57°30' E 010°30'0 0.0
2017-Aug-16 12:31N 57°30' E 010°30'0 0.0
2017-Aug-16 12:29N 57°30' E 010°30'0 0.0
2017-Aug-15 15:23N 57°30' E 010°30'0 0.0
2017-Aug-15 14:55N 57°30' E 010°30'7 0.6
2017-Aug-15 03:05N 57°28' E 010°44'1 7.3
2017-Aug-15 02:59N 57°28' E 010°45'3 3.6
2017-Aug-15 02:15N 57°28' E 010°50'1 2.6
2017-Aug-15 02:00N 57°28' E 010°51'1 2.5
2017-Aug-15 01:28N 57°29' E 010°53'1 2.5
2017-Aug-15 00:59N 57°29' E 010°55'1 2.5
2017-Aug-15 00:30N 57°30' E 010°57'1 2.5
2017-Aug-15 00:00N 57°31' E 010°59'1 2.5
2017-Aug-14 23:30N 57°32' E 011°01'1 2.7
2017-Aug-14 23:00N 57°33' E 011°03'1 1.6
2017-Aug-14 22:30N 57°33' E 011°03'1 2.2
2017-Aug-14 22:00N 57°32' E 011°02'1 2.5
2017-Aug-14 21:30N 57°31' E 011°00'1 2.5
2017-Aug-14 21:00N 57°31' E 010°59'1 2.5
2017-Aug-14 20:29N 57°30' E 010°57'1 2.6
2017-Aug-14 20:00N 57°29' E 010°55'1 2.5
2017-Aug-14 19:30N 57°28' E 010°53'1 2.6
2017-Aug-14 19:00N 57°28' E 010°51'2 4.1
2017-Aug-14 18:29N 57°28' E 010°47'  

Dump ship's entire track history